createdAt,value
2018-10-03T00:00:56.918Z,4.20
2018-10-03T00:03:24.290Z,4.53
2018-10-03T00:05:51.559Z,4.27
2018-10-03T00:08:19.005Z,4.13
2018-10-03T00:10:46.660Z,4.70
2018-10-03T00:13:13.929Z,4.83
2018-10-03T00:15:41.170Z,4.70
2018-10-03T00:18:08.442Z,4.10
2018-10-03T00:20:35.897Z,3.83
2018-10-03T00:23:03.171Z,4.33
2018-10-03T00:25:30.460Z,4.90
2018-10-03T00:27:57.727Z,4.33
2018-10-03T00:30:24.982Z,3.87
2018-10-03T00:32:52.274Z,4.47
2018-10-03T00:35:19.521Z,4.63
2018-10-03T00:37:46.769Z,5.43
2018-10-03T00:40:14.028Z,4.23
2018-10-03T00:42:41.317Z,4.40
2018-10-03T00:45:08.568Z,4.00
2018-10-03T00:47:35.955Z,4.47
2018-10-03T00:50:03.272Z,5.20
2018-10-03T00:52:30.561Z,4.23
2018-10-03T00:54:58.014Z,4.80
2018-10-03T00:57:25.281Z,4.80
2018-10-03T00:59:52.825Z,4.93
2018-10-03T01:02:20.133Z,4.63
2018-10-03T01:04:47.384Z,5.27
2018-10-03T01:07:14.894Z,4.47
2018-10-03T01:09:42.145Z,5.63
2018-10-03T01:12:09.405Z,4.37
2018-10-03T01:14:36.669Z,4.67
2018-10-03T01:17:03.962Z,5.07
2018-10-03T01:19:31.217Z,4.63
2018-10-03T01:21:58.486Z,4.60
2018-10-03T01:24:25.753Z,4.80
2018-10-03T01:26:53.007Z,4.73
2018-10-03T01:29:20.439Z,4.50
2018-10-03T01:31:47.711Z,5.37
2018-10-03T01:34:14.956Z,4.70
2018-10-03T01:36:42.527Z,4.77
2018-10-03T01:39:10.186Z,5.10
2018-10-03T01:41:37.888Z,5.63
2018-10-03T01:44:05.171Z,4.57
2018-10-03T01:46:32.459Z,5.37
2018-10-03T01:48:59.721Z,5.30
2018-10-03T01:51:26.993Z,5.07
2018-10-03T01:53:54.277Z,4.87
2018-10-03T01:56:21.553Z,5.87
2018-10-03T01:58:48.842Z,5.43
2018-10-03T02:01:16.090Z,4.50
2018-10-03T02:03:43.406Z,4.83
2018-10-03T02:06:10.889Z,4.87
2018-10-03T02:08:38.144Z,6.37
2018-10-03T02:11:05.588Z,5.13
2018-10-03T02:13:32.910Z,4.53
2018-10-03T02:16:00.190Z,5.00
2018-10-03T02:18:27.491Z,4.37
2018-10-03T02:20:54.759Z,4.90
2018-10-03T02:23:22.019Z,5.00
2018-10-03T02:25:49.314Z,5.47
2018-10-03T02:28:16.571Z,4.77
2018-10-03T02:30:43.829Z,5.37
2018-10-03T02:33:11.261Z,5.00
2018-10-03T02:35:38.522Z,5.33
2018-10-03T02:38:05.814Z,5.33
2018-10-03T02:40:33.081Z,5.37
2018-10-03T02:43:00.329Z,5.13
2018-10-03T02:45:28.425Z,5.07
2018-10-03T02:47:55.704Z,5.57
2018-10-03T02:50:23.156Z,5.50
2018-10-03T02:52:50.411Z,5.40
2018-10-03T02:55:17.668Z,5.17
2018-10-03T02:57:45.124Z,5.37
2018-10-03T03:00:12.410Z,5.60
2018-10-03T03:02:39.787Z,5.67
2018-10-03T03:05:07.053Z,5.03
2018-10-03T03:07:34.535Z,4.57
2018-10-03T03:10:02.097Z,5.80
2018-10-03T03:12:29.367Z,5.23
2018-10-03T03:14:56.664Z,5.20
2018-10-03T03:17:23.933Z,6.13
2018-10-03T03:19:51.192Z,4.93
2018-10-03T03:22:18.517Z,4.53
2018-10-03T03:24:45.769Z,6.03
2018-10-03T03:27:13.022Z,4.50
2018-10-03T03:29:40.315Z,5.27
2018-10-03T03:32:07.561Z,6.13
2018-10-03T03:34:34.884Z,5.20
2018-10-03T03:37:02.389Z,5.30
2018-10-03T03:39:29.687Z,4.90
2018-10-03T03:41:56.955Z,5.73
2018-10-03T03:44:24.442Z,5.50
2018-10-03T03:46:51.692Z,5.23
2018-10-03T03:49:18.974Z,5.10
2018-10-03T03:51:46.288Z,5.80
2018-10-03T03:54:13.578Z,4.40
2018-10-03T03:56:40.869Z,4.17
2018-10-03T03:59:08.140Z,4.80
2018-10-03T04:01:35.422Z,4.60
2018-10-03T04:04:02.752Z,4.60
2018-10-03T04:06:30.023Z,4.90
2018-10-03T04:08:57.290Z,6.07
2018-10-03T04:11:24.551Z,4.97
2018-10-03T04:13:51.807Z,5.43
2018-10-03T04:16:19.065Z,4.73
2018-10-03T04:18:46.343Z,4.27
2018-10-03T04:21:13.617Z,5.60
2018-10-03T04:23:40.869Z,4.80
2018-10-03T04:26:08.130Z,4.10
2018-10-03T04:28:35.398Z,4.33
2018-10-03T04:31:02.729Z,3.90
2018-10-03T04:33:29.996Z,4.77
2018-10-03T04:35:57.782Z,4.83
2018-10-03T04:38:25.032Z,4.90
2018-10-03T04:40:52.286Z,4.90
2018-10-03T04:43:19.561Z,3.97
2018-10-03T04:45:46.809Z,4.03
2018-10-03T04:48:14.071Z,4.17
2018-10-03T04:50:41.569Z,4.17
2018-10-03T04:53:08.813Z,4.10
2018-10-03T04:55:36.092Z,4.30
2018-10-03T04:58:03.349Z,4.00
2018-10-03T05:00:30.638Z,4.43
2018-10-03T05:02:57.892Z,4.70
2018-10-03T05:05:25.157Z,4.37
2018-10-03T05:07:52.419Z,3.97
2018-10-03T05:10:19.686Z,4.20
2018-10-03T05:12:46.962Z,6.03
2018-10-03T05:15:14.234Z,5.77
2018-10-03T05:17:41.788Z,3.67
2018-10-03T05:20:09.089Z,4.07
2018-10-03T05:22:36.359Z,3.33
2018-10-03T05:25:03.777Z,3.93
2018-10-03T05:27:31.035Z,4.37
2018-10-03T05:29:58.324Z,5.20
2018-10-03T05:32:25.603Z,4.83
2018-10-03T05:34:52.855Z,4.13
2018-10-03T05:37:20.152Z,4.10
2018-10-03T05:39:47.474Z,4.20
2018-10-03T05:42:14.755Z,4.47
2018-10-03T05:44:48.980Z,5.33
2018-10-03T05:47:16.409Z,4.00
2018-10-03T05:49:43.751Z,5.50
2018-10-03T05:52:11.112Z,3.80
2018-10-03T05:54:38.480Z,4.67
2018-10-03T05:57:05.927Z,3.90
2018-10-03T05:59:33.222Z,4.50
2018-10-03T06:02:00.525Z,4.40
2018-10-03T06:04:27.846Z,4.67
2018-10-03T06:06:55.150Z,4.53
2018-10-03T06:09:22.398Z,4.80
2018-10-03T06:11:49.667Z,4.80
2018-10-03T06:14:16.909Z,4.20
2018-10-03T06:16:44.166Z,4.13
2018-10-03T06:19:11.476Z,4.63
2018-10-03T06:21:38.763Z,3.90
2018-10-03T06:24:06.053Z,3.70
2018-10-03T06:26:33.306Z,4.33
2018-10-03T06:29:00.642Z,4.43
2018-10-03T06:31:27.886Z,4.43
2018-10-03T06:33:55.154Z,4.57
2018-10-03T06:36:22.432Z,3.93
2018-10-03T06:38:49.935Z,5.93
2018-10-03T06:41:17.197Z,4.10
2018-10-03T06:43:44.455Z,4.97
2018-10-03T06:46:11.767Z,4.13
2018-10-03T06:48:39.054Z,4.10
2018-10-03T06:51:06.496Z,3.97
2018-10-03T06:53:34.166Z,4.57
2018-10-03T06:56:01.420Z,4.23
2018-10-03T06:58:28.666Z,4.77
2018-10-03T07:00:55.958Z,4.13
2018-10-03T07:03:23.202Z,4.53
2018-10-03T07:05:50.574Z,4.80
2018-10-03T07:08:17.853Z,4.97
2018-10-03T07:10:45.230Z,4.70
2018-10-03T07:13:12.680Z,3.80
2018-10-03T07:15:39.866Z,4.70
2018-10-03T07:18:07.146Z,4.17
2018-10-03T07:20:34.407Z,5.20
2018-10-03T07:23:01.646Z,4.10
2018-10-03T07:25:28.969Z,4.00
2018-10-03T07:27:56.222Z,4.33
2018-10-03T07:30:23.496Z,4.53
2018-10-03T07:32:50.799Z,3.93
2018-10-03T07:35:18.058Z,4.03
2018-10-03T07:37:45.328Z,4.80
2018-10-03T07:40:12.654Z,4.33
2018-10-03T07:42:39.954Z,3.93
2018-10-03T07:45:07.262Z,4.63
2018-10-03T07:47:34.511Z,4.30
2018-10-03T07:50:01.780Z,5.00
2018-10-03T07:52:29.051Z,3.67
2018-10-03T07:54:56.322Z,4.73
2018-10-03T07:57:23.846Z,4.57
2018-10-03T07:59:51.137Z,5.30
2018-10-03T08:02:18.398Z,4.53
2018-10-03T08:04:45.667Z,4.30
2018-10-03T08:07:12.926Z,4.80
2018-10-03T08:09:40.346Z,3.97
2018-10-03T08:12:07.595Z,3.70
2018-10-03T08:14:34.834Z,4.40
2018-10-03T08:17:02.373Z,4.57
2018-10-03T08:19:29.686Z,4.43
2018-10-03T08:21:56.934Z,4.30
2018-10-03T08:24:24.256Z,4.70
2018-10-03T08:26:51.570Z,4.17
2018-10-03T08:29:18.822Z,4.77
2018-10-03T08:31:46.122Z,3.93
2018-10-03T08:34:13.376Z,5.13
2018-10-03T08:36:40.626Z,3.90
2018-10-03T08:39:09.594Z,4.07
2018-10-03T08:41:36.846Z,4.67
2018-10-03T08:44:04.097Z,3.60
2018-10-03T08:46:31.354Z,4.10
2018-10-03T08:48:59.006Z,3.60
2018-10-03T08:51:26.246Z,3.77
2018-10-03T08:53:53.550Z,3.87
2018-10-03T08:56:20.970Z,4.07
2018-10-03T08:58:48.243Z,4.37
2018-10-03T09:01:15.486Z,3.60
2018-10-03T09:03:42.805Z,4.93
2018-10-03T09:06:10.070Z,4.70
2018-10-03T09:08:37.330Z,4.10
2018-10-03T09:11:04.604Z,3.20
2018-10-03T09:13:31.872Z,3.20
2018-10-03T09:15:59.137Z,4.10
2018-10-03T09:18:26.418Z,3.07
2018-10-03T09:20:53.668Z,3.90
2018-10-03T09:23:20.925Z,3.20
2018-10-03T09:25:48.407Z,4.37
2018-10-03T09:28:15.700Z,4.10
2018-10-03T09:30:43.067Z,3.63
2018-10-03T09:33:10.346Z,3.67
2018-10-03T09:35:37.601Z,3.50
2018-10-03T09:38:04.910Z,4.00
2018-10-03T09:40:32.269Z,4.47
2018-10-03T09:42:59.554Z,4.13
2018-10-03T09:45:26.842Z,3.17
2018-10-03T09:47:54.081Z,3.97
2018-10-03T09:50:21.693Z,3.60
2018-10-03T09:52:49.175Z,4.37
2018-10-03T09:55:16.558Z,4.03
2018-10-03T09:57:43.809Z,4.67
2018-10-03T10:00:11.138Z,3.40
2018-10-03T10:02:38.372Z,4.27
2018-10-03T10:05:05.698Z,3.70
2018-10-03T10:07:32.953Z,3.33
2018-10-03T10:10:00.207Z,4.27
2018-10-03T10:12:27.469Z,2.93
2018-10-03T10:14:54.733Z,3.60
2018-10-03T10:17:21.996Z,3.30
2018-10-03T10:19:49.256Z,3.70
2018-10-03T10:22:16.511Z,3.97
2018-10-03T10:24:43.783Z,3.73
2018-10-03T10:27:11.104Z,3.43
2018-10-03T10:29:38.578Z,3.63
2018-10-03T10:32:06.039Z,3.87
2018-10-03T10:34:33.301Z,3.37
2018-10-03T10:37:00.556Z,3.57
2018-10-03T10:39:27.810Z,3.53
2018-10-03T10:41:55.070Z,3.47
2018-10-03T10:44:22.310Z,3.67
2018-10-03T10:46:49.633Z,4.00
2018-10-03T10:49:16.849Z,3.00
2018-10-03T10:51:44.181Z,3.63
2018-10-03T10:54:11.455Z,3.40
2018-10-03T10:56:38.715Z,3.30
2018-10-03T10:59:06.020Z,3.40
2018-10-03T11:01:33.282Z,3.73
2018-10-03T11:04:00.568Z,3.33
2018-10-03T11:06:27.845Z,2.97
2018-10-03T11:08:55.090Z,2.80
2018-10-03T11:11:22.463Z,3.33
2018-10-03T11:13:49.716Z,3.83
2018-10-03T11:16:17.140Z,3.53
2018-10-03T11:18:44.402Z,3.27
2018-10-03T11:21:11.658Z,3.40
2018-10-03T11:23:39.327Z,3.43
2018-10-03T11:26:06.588Z,3.40
2018-10-03T11:28:33.945Z,3.10
2018-10-03T11:31:01.230Z,3.63
2018-10-03T11:33:28.470Z,3.40
2018-10-03T11:35:55.718Z,3.83
2018-10-03T11:38:23.093Z,3.43
2018-10-03T11:40:50.412Z,3.40
2018-10-03T11:43:17.653Z,3.23
2018-10-03T11:45:44.927Z,2.80
2018-10-03T11:48:12.366Z,3.70
2018-10-03T11:50:39.693Z,3.00
2018-10-03T11:53:07.060Z,3.60
2018-10-03T11:55:34.642Z,3.80
2018-10-03T11:58:01.891Z,3.70
2018-10-03T12:00:29.186Z,3.20
2018-10-03T12:02:56.585Z,4.13
2018-10-03T12:05:23.872Z,3.73
2018-10-03T12:07:51.150Z,3.47
2018-10-03T12:10:18.409Z,3.20
2018-10-03T12:12:45.658Z,3.07
2018-10-03T12:15:13.001Z,4.40
2018-10-03T12:17:40.255Z,3.17
2018-10-03T12:20:07.548Z,3.13
2018-10-03T12:22:34.866Z,3.80
2018-10-03T12:25:02.161Z,3.20
2018-10-03T12:27:29.373Z,3.50
2018-10-03T12:29:56.646Z,3.50
2018-10-03T12:32:23.965Z,3.87
2018-10-03T12:34:51.214Z,3.63
2018-10-03T12:37:18.482Z,3.27
2018-10-03T12:39:45.806Z,3.37
2018-10-03T12:42:13.341Z,3.63
2018-10-03T12:44:40.595Z,2.70
2018-10-03T12:47:07.862Z,3.57
2018-10-03T12:49:35.406Z,3.70
2018-10-03T12:52:02.659Z,4.00
2018-10-03T12:54:29.967Z,3.37
2018-10-03T12:56:57.208Z,2.97
2018-10-03T12:59:24.446Z,3.93
2018-10-03T13:01:51.731Z,3.17
2018-10-03T13:04:18.989Z,3.43
2018-10-03T13:06:46.247Z,3.77
2018-10-03T13:09:14.340Z,2.97
2018-10-03T13:11:42.297Z,3.47
2018-10-03T13:14:09.629Z,3.70
2018-10-03T13:16:36.882Z,3.47
2018-10-03T13:19:04.161Z,2.83
2018-10-03T13:21:31.433Z,2.87
2018-10-03T13:23:58.699Z,3.20
2018-10-03T13:26:25.959Z,3.70
2018-10-03T13:28:53.237Z,2.83
2018-10-03T13:31:20.492Z,3.37
2018-10-03T13:33:47.750Z,3.73
2018-10-03T13:36:15.054Z,3.77
2018-10-03T13:38:42.341Z,3.17
2018-10-03T13:41:09.601Z,2.97
2018-10-03T13:43:36.922Z,3.10
2018-10-03T13:46:04.222Z,3.30
2018-10-03T13:48:31.478Z,3.37
2018-10-03T13:50:58.818Z,3.30
2018-10-03T13:53:26.061Z,3.10
2018-10-03T13:55:53.312Z,3.50
2018-10-03T13:58:20.617Z,3.10
2018-10-03T14:00:47.898Z,3.70
2018-10-03T14:03:15.161Z,3.27
2018-10-03T14:05:42.445Z,3.20
2018-10-03T14:08:09.689Z,3.47
2018-10-03T14:10:36.949Z,3.80
2018-10-03T14:13:04.235Z,3.53
2018-10-03T14:15:31.581Z,3.60
2018-10-03T14:17:58.839Z,3.20
2018-10-03T14:20:26.217Z,3.73
2018-10-03T14:22:53.469Z,2.70
2018-10-03T14:25:20.729Z,3.50
2018-10-03T14:27:48.073Z,3.30
2018-10-03T14:30:15.321Z,2.70
2018-10-03T14:32:42.595Z,3.20
2018-10-03T14:35:10.111Z,3.43
2018-10-03T14:37:37.370Z,2.97
2018-10-03T14:40:04.700Z,3.50
2018-10-03T14:42:32.026Z,3.23
2018-10-03T14:44:59.281Z,4.37
2018-10-03T14:47:26.597Z,2.73
2018-10-03T14:49:53.852Z,2.53
2018-10-03T14:52:21.272Z,4.03
2018-10-03T14:54:48.727Z,3.53
2018-10-03T14:57:15.987Z,3.30
2018-10-03T14:59:43.280Z,3.77
2018-10-03T15:02:10.588Z,3.40
2018-10-03T15:04:37.872Z,3.07
2018-10-03T15:07:05.458Z,2.80
2018-10-03T15:09:32.830Z,3.30
2018-10-03T15:12:00.171Z,3.10
2018-10-03T15:14:27.443Z,3.10
2018-10-03T15:16:54.740Z,3.33
2018-10-03T15:19:22.005Z,3.80
2018-10-03T15:21:49.312Z,2.83
2018-10-03T15:24:16.655Z,3.93
2018-10-03T15:26:43.872Z,3.53
2018-10-03T15:29:11.206Z,3.03
2018-10-03T15:31:38.966Z,2.97
2018-10-03T15:34:06.407Z,3.20
2018-10-03T15:36:33.754Z,3.07
2018-10-03T15:39:01.098Z,2.90
2018-10-03T15:41:29.283Z,2.90
2018-10-03T15:43:56.590Z,3.37
2018-10-03T15:46:23.890Z,3.47
2018-10-03T15:48:51.158Z,3.10
2018-10-03T15:51:18.433Z,3.23
2018-10-03T15:53:45.685Z,3.13
2018-10-03T15:56:12.927Z,2.70
2018-10-03T15:58:40.255Z,2.60
2018-10-03T16:01:07.508Z,2.53
2018-10-03T16:03:34.817Z,3.43
2018-10-03T16:06:02.109Z,3.03
2018-10-03T16:08:29.402Z,3.40
2018-10-03T16:10:56.650Z,2.77
2018-10-03T16:13:23.950Z,3.93
2018-10-03T16:15:51.249Z,2.90
2018-10-03T16:18:18.511Z,3.77
2018-10-03T16:20:45.772Z,3.07
2018-10-03T16:23:13.022Z,2.87
2018-10-03T16:25:40.306Z,2.90
2018-10-03T16:28:07.571Z,3.00
2018-10-03T16:30:34.890Z,3.20
2018-10-03T16:33:02.189Z,3.03
2018-10-03T16:35:29.655Z,3.10
2018-10-03T16:37:56.939Z,2.97
2018-10-03T16:40:24.222Z,2.93
2018-10-03T16:42:53.058Z,2.77
2018-10-03T16:45:20.326Z,3.17
2018-10-03T16:47:47.584Z,2.70
2018-10-03T16:50:14.882Z,2.73
2018-10-03T16:52:42.214Z,3.40
2018-10-03T16:55:09.726Z,3.53
2018-10-03T16:57:36.977Z,3.20
2018-10-03T17:00:04.506Z,3.27
2018-10-03T17:02:31.922Z,3.50
2018-10-03T17:05:15.465Z,3.23
2018-10-03T17:07:43.263Z,3.17
2018-10-03T17:10:10.748Z,3.37
2018-10-03T17:12:38.032Z,3.10
2018-10-03T17:15:05.311Z,3.00
2018-10-03T17:17:32.571Z,4.20
2018-10-03T17:19:59.842Z,4.23
2018-10-03T17:22:27.107Z,4.60
2018-10-03T17:24:54.362Z,3.77
2018-10-03T17:27:21.636Z,5.23
2018-10-03T17:29:50.329Z,4.90
2018-10-03T17:32:17.758Z,5.27
2018-10-03T17:34:45.027Z,4.03
2018-10-03T17:37:12.350Z,3.50
2018-10-03T17:39:39.674Z,3.30
2018-10-03T17:42:06.994Z,3.20
2018-10-03T17:44:34.301Z,3.03
2018-10-03T17:47:02.086Z,3.10
2018-10-03T17:49:29.370Z,3.50
2018-10-03T17:51:57.323Z,3.70
2018-10-03T17:54:24.572Z,3.27
2018-10-03T17:56:51.874Z,3.57
2018-10-03T17:59:19.411Z,2.80
2018-10-03T18:01:49.402Z,3.20
2018-10-03T18:04:16.671Z,3.50
2018-10-03T18:06:44.034Z,3.20
2018-10-03T18:09:11.742Z,3.77
2018-10-03T18:11:39.102Z,3.27
2018-10-03T18:14:06.653Z,3.57
2018-10-03T18:16:33.923Z,3.40
2018-10-03T18:19:01.376Z,3.10
2018-10-03T18:21:28.618Z,2.97
2018-10-03T18:23:55.877Z,3.10
2018-10-03T18:26:23.130Z,4.10
2018-10-03T18:28:50.380Z,3.20
2018-10-03T18:31:17.671Z,3.97
2018-10-03T18:33:44.910Z,3.30
2018-10-03T18:36:12.318Z,4.57
2018-10-03T18:38:39.649Z,2.90
2018-10-03T18:41:06.883Z,3.70
2018-10-03T18:43:34.170Z,2.93
2018-10-03T18:46:01.434Z,3.20
2018-10-03T18:48:28.694Z,3.47
2018-10-03T18:50:55.978Z,3.70
2018-10-03T18:53:23.225Z,3.10
2018-10-03T18:55:50.486Z,3.27
2018-10-03T18:58:17.783Z,3.70
2018-10-03T19:00:45.058Z,3.80
2018-10-03T19:03:12.350Z,3.70
2018-10-03T19:05:39.642Z,4.77
2018-10-03T19:08:06.858Z,4.60
2018-10-03T19:10:34.475Z,4.00
2018-10-03T19:13:01.766Z,5.10
2018-10-03T19:15:29.045Z,6.20
2018-10-03T19:17:56.398Z,4.87
2018-10-03T19:20:23.671Z,5.23
2018-10-03T19:22:50.922Z,4.30
2018-10-03T19:25:18.306Z,4.87
2018-10-03T19:27:45.554Z,4.53
2018-10-03T19:30:12.861Z,4.67
2018-10-03T19:32:40.147Z,3.60
2018-10-03T19:35:07.423Z,3.70
2018-10-03T19:37:34.963Z,3.77
2018-10-03T19:40:02.230Z,4.23
2018-10-03T19:42:29.482Z,3.83
2018-10-03T19:44:56.719Z,4.50
2018-10-03T19:47:23.967Z,4.83
2018-10-03T19:49:51.271Z,4.97
2018-10-03T19:52:18.522Z,4.73
2018-10-03T19:54:45.809Z,3.50
2018-10-03T19:57:13.050Z,3.30
2018-10-03T19:59:40.298Z,3.47
2018-10-03T20:02:07.685Z,4.20
2018-10-03T20:04:35.167Z,3.30
2018-10-03T20:07:02.434Z,3.80
2018-10-03T20:09:29.689Z,4.07
2018-10-03T20:11:57.130Z,3.37
2018-10-03T20:14:24.402Z,4.60
2018-10-03T20:16:51.645Z,3.97
2018-10-03T20:19:18.887Z,4.03
2018-10-03T20:21:46.127Z,4.23
2018-10-03T20:24:13.420Z,4.20
2018-10-03T20:26:40.739Z,4.17
2018-10-03T20:29:08.682Z,3.67
2018-10-03T20:31:36.160Z,3.83
2018-10-03T20:34:03.413Z,5.13
2018-10-03T20:36:30.751Z,3.63
2018-10-03T20:38:58.125Z,4.13
2018-10-03T20:41:25.408Z,3.57
2018-10-03T20:43:52.677Z,3.90
2018-10-03T20:46:20.158Z,5.20
2018-10-03T20:48:47.405Z,4.10
2018-10-03T20:51:14.755Z,4.83
2018-10-03T20:53:42.106Z,3.80
2018-10-03T20:56:09.414Z,4.23
2018-10-03T20:58:36.814Z,4.10
2018-10-03T21:01:04.125Z,4.27
2018-10-03T21:03:31.386Z,4.47
2018-10-03T21:05:59.024Z,3.80
2018-10-03T21:08:26.290Z,4.67
2018-10-03T21:10:53.546Z,4.40
2018-10-03T21:13:20.814Z,3.97
2018-10-03T21:15:48.054Z,3.97
2018-10-03T21:18:15.293Z,3.93
2018-10-03T21:20:42.545Z,4.87
2018-10-03T21:23:09.802Z,4.20
2018-10-03T21:25:38.038Z,4.50
2018-10-03T21:28:05.358Z,4.60
2018-10-03T21:30:32.599Z,4.27
2018-10-03T21:32:59.843Z,4.60
2018-10-03T21:35:27.102Z,4.20
2018-10-03T21:37:54.362Z,3.73
2018-10-03T21:40:21.602Z,3.33
2018-10-03T21:42:49.038Z,3.63
2018-10-03T21:45:16.290Z,3.40
2018-10-03T21:47:43.838Z,3.73
2018-10-03T21:50:11.166Z,3.30
2018-10-03T21:52:38.544Z,3.23
2018-10-03T21:55:05.827Z,3.67
2018-10-03T21:57:33.064Z,4.57
2018-10-03T22:00:00.514Z,3.70
2018-10-03T22:02:27.798Z,3.77
2018-10-03T22:04:55.053Z,4.07
2018-10-03T22:07:22.365Z,4.00
2018-10-03T22:09:49.943Z,3.93
2018-10-03T22:12:17.226Z,4.30
2018-10-03T22:14:44.479Z,3.80
2018-10-03T22:17:17.369Z,4.30
2018-10-03T22:19:44.614Z,3.93
2018-10-03T22:22:11.874Z,3.60
2018-10-03T22:24:39.210Z,3.63
2018-10-03T22:27:06.938Z,3.77
2018-10-03T22:29:34.166Z,3.80
2018-10-03T22:32:01.502Z,4.47
2018-10-03T22:34:28.771Z,3.70
2018-10-03T22:36:56.026Z,4.63
2018-10-03T22:39:23.261Z,4.27
2018-10-03T22:41:50.542Z,4.13
2018-10-03T22:44:17.794Z,4.43
2018-10-03T22:46:45.032Z,5.00
2018-10-03T22:49:12.507Z,4.97
2018-10-03T22:51:39.741Z,4.50
2018-10-03T22:54:07.078Z,4.67
2018-10-03T22:56:34.339Z,4.87
2018-10-03T22:59:01.586Z,4.30
2018-10-03T23:01:28.850Z,3.97
2018-10-03T23:03:56.309Z,4.77
2018-10-03T23:06:23.578Z,4.33
2018-10-03T23:08:50.893Z,4.87
2018-10-03T23:11:18.174Z,3.80
2018-10-03T23:13:45.413Z,3.97
2018-10-03T23:16:12.726Z,4.50
2018-10-03T23:18:39.987Z,3.93
2018-10-03T23:21:07.251Z,4.40
2018-10-03T23:23:34.490Z,4.00
2018-10-03T23:26:01.781Z,4.27
2018-10-03T23:28:29.032Z,3.90
2018-10-03T23:30:56.312Z,4.20
2018-10-03T23:33:23.579Z,3.93
2018-10-03T23:35:50.838Z,4.10
2018-10-03T23:38:18.091Z,3.60
2018-10-03T23:40:45.350Z,4.23
2018-10-03T23:43:12.664Z,4.20
2018-10-03T23:45:39.927Z,4.33
2018-10-03T23:48:07.182Z,4.57
2018-10-03T23:50:34.449Z,3.80
2018-10-03T23:53:01.706Z,3.90
2018-10-03T23:55:28.957Z,4.03
2018-10-03T23:57:56.214Z,3.70
